Time;durP1;ratioP1;P1;durP2;ratioP2;P2;SDS_P1;SDS_P2;PMS_P1;PMS_P2;Temp;Humidity;BMP_temperature;BMP_pressure;BME280_temperature;BME280_humidity;BME280_pressure;Samples;Min_cycle;Max_cycle;Signal;HPM_P1;HPM_P2
2021/04/02 00:00:40;;;;;;;13.55;3.85;;;22.70;45.00;;;;;;5133455;27;20115;-38
2021/04/02 00:03:18;;;;;;;13.98;3.30;;;22.70;45.00;;;;;;5133502;27;20063;-37
2021/04/02 00:05:45;;;;;;;15.75;4.35;;;22.60;44.80;;;;;;5134544;27;20078;-37
2021/04/02 00:08:12;;;;;;;15.93;4.13;;;22.60;44.80;;;;;;5136148;27;20043;-38
2021/04/02 00:11:12;;;;;;;14.57;3.65;;;22.60;44.80;;;;;;5135264;27;20039;-37
2021/04/02 00:13:44;;;;;;;11.35;3.45;;;22.60;44.80;;;;;;5038018;28;20044;-39
2021/04/02 00:16:13;;;;;;;14.07;3.28;;;22.60;44.80;;;;;;5035910;28;20048;-37
2021/04/02 00:18:39;;;;;;;13.38;3.03;;;22.70;44.90;;;;;;5050438;28;20059;-38
2021/04/02 00:21:08;;;;;;;9.20;2.92;;;22.70;44.90;;;;;;5035685;28;20056;-38
2021/04/02 00:23:36;;;;;;;14.25;3.22;;;22.60;44.90;;;;;;5036687;28;20395;-38
2021/04/02 00:26:10;;;;;;;11.93;3.15;;;22.60;44.90;;;;;;5047411;28;20048;-37
2021/04/02 00:28:37;;;;;;;12.02;3.20;;;22.60;44.90;;;;;;5050703;28;20056;-38
2021/04/02 00:31:04;;;;;;;12.20;3.50;;;22.60;44.90;;;;;;5027682;28;20495;-38
2021/04/02 00:33:33;;;;;;;12.82;3.42;;;22.60;44.90;;;;;;5044656;28;20127;-39
2021/04/02 00:36:01;;;;;;;15.30;3.58;;;22.60;44.90;;;;;;5034012;28;20060;-38
2021/04/02 00:38:29;;;;;;;8.60;2.83;;;22.60;44.90;;;;;;5046196;28;20452;-38
2021/04/02 00:40:58;;;;;;;12.52;2.90;;;22.60;44.90;;;;;;5039068;28;20124;-39
2021/04/02 00:43:32;;;;;;;12.68;3.95;;;22.60;44.90;;;;;;5052853;28;20049;-37
2021/04/02 00:45:59;;;;;;;13.23;3.80;;;22.60;44.90;;;;;;5052844;28;20084;-39
2021/04/02 00:48:26;;;;;;;10.75;3.42;;;22.60;44.90;;;;;;5065304;27;20043;-37
2021/04/02 00:50:56;;;;;;;12.02;3.55;;;22.70;45.00;;;;;;5117899;27;20046;-38
2021/04/02 00:53:26;;;;;;;12.68;3.30;;;22.60;45.50;;;;;;5134836;27;20051;-38
2021/04/02 00:55:53;;;;;;;9.57;3.03;;;22.60;44.90;;;;;;5121498;27;20116;-37
2021/04/02 00:58:23;;;;;;;12.82;3.35;;;22.70;45.00;;;;;;5118852;27;20044;-37
2021/04/02 01:00:51;;;;;;;13.25;3.40;;;22.60;44.90;;;;;;5117381;27;20044;-37
2021/04/02 01:03:20;;;;;;;14.27;3.67;;;22.60;44.90;;;;;;5128929;27;20077;-38
2021/04/02 01:05:49;;;;;;;12.95;3.40;;;22.60;44.90;;;;;;5130873;27;20506;-38
2021/04/02 01:08:29;;;;;;;13.05;3.08;;;22.60;44.90;;;;;;5130196;27;20044;-38
2021/04/02 01:10:58;;;;;;;12.88;3.03;;;22.60;44.90;;;;;;5121656;27;20047;-38
2021/04/02 01:13:31;;;;;;;10.38;2.88;;;22.60;44.90;;;;;;5130908;27;20044;-38
2021/04/02 01:16:11;;;;;;;14.02;3.40;;;22.60;44.90;;;;;;5120225;27;20039;-39
2021/04/02 01:18:52;;;;;;;14.55;3.40;;;22.60;44.90;;;;;;5119815;27;20482;-38
2021/04/02 01:21:28;;;;;;;10.77;3.00;;;22.60;44.90;;;;;;5120317;27;20039;-38
2021/04/02 01:24:17;;;;;;;8.57;3.15;;;22.60;44.90;;;;;;5135010;27;20082;-39
2021/04/02 01:26:46;;;;;;;9.30;3.25;;;22.60;44.90;;;;;;5119627;27;20453;-38
2021/04/02 01:29:21;;;;;;;10.57;2.72;;;22.60;44.90;;;;;;5112750;27;20086;-37
2021/04/02 01:31:51;;;;;;;12.85;2.88;;;22.60;44.90;;;;;;5116329;27;20082;-39
2021/04/02 01:34:27;;;;;;;11.88;2.80;;;22.70;45.00;;;;;;5134244;27;20051;-37
2021/04/02 01:36:54;;;;;;;14.60;3.38;;;22.60;44.90;;;;;;5134401;27;20547;-37
2021/04/02 01:39:21;;;;;;;16.27;3.72;;;22.60;44.90;;;;;;5135458;27;20126;-37
2021/04/02 01:41:53;;;;;;;10.52;3.25;;;22.60;44.90;;;;;;5133488;27;20047;-37
2021/04/02 01:44:21;;;;;;;12.02;2.83;;;22.60;44.90;;;;;;5135010;27;20092;-37
2021/04/02 01:46:50;;;;;;;14.55;3.63;;;22.60;44.90;;;;;;5132387;27;20126;-38
2021/04/02 01:49:18;;;;;;;11.20;3.83;;;22.60;44.90;;;;;;5130734;27;20500;-37
2021/04/02 01:51:46;;;;;;;12.07;3.25;;;22.60;44.90;;;;;;5132593;27;20129;-37
2021/04/02 01:54:13;;;;;;;16.25;3.97;;;22.60;44.90;;;;;;5132189;27;20494;-37
2021/04/02 01:56:41;;;;;;;15.48;3.60;;;22.60;44.90;;;;;;5131125;27;20046;-37
2021/04/02 01:59:09;;;;;;;11.82;3.90;;;22.60;45.00;;;;;;5133297;27;20494;-38
2021/04/02 02:01:45;;;;;;;8.18;2.78;;;22.60;44.90;;;;;;5131347;27;20118;-37
2021/04/02 02:04:11;;;;;;;7.97;2.70;;;22.60;44.90;;;;;;5115593;27;20124;-37
2021/04/02 02:06:39;;;;;;;13.43;3.08;;;22.60;44.90;;;;;;5122764;27;20078;-37
2021/04/02 02:09:10;;;;;;;10.07;3.10;;;22.60;44.90;;;;;;5131840;27;20071;-38
2021/04/02 02:11:41;;;;;;;9.52;3.08;;;22.60;45.50;;;;;;5132547;27;20047;-37
2021/04/02 02:14:13;;;;;;;9.75;3.20;;;22.60;44.90;;;;;;5130704;27;20054;-37
2021/04/02 02:16:42;;;;;;;14.95;3.10;;;22.60;44.90;;;;;;5132103;27;20051;-37
2021/04/02 02:19:14;;;;;;;9.77;2.95;;;22.60;44.90;;;;;;5132129;27;20051;-37
2021/04/02 02:21:47;;;;;;;8.55;3.05;;;22.60;44.90;;;;;;5131660;27;20050;-37
2021/04/02 02:24:15;;;;;;;9.57;3.08;;;22.60;44.90;;;;;;5131987;27;20140;-37
2021/04/02 02:26:43;;;;;;;10.07;2.80;;;22.60;44.90;;;;;;5131748;27;20444;-37
2021/04/02 02:29:10;;;;;;;11.43;3.42;;;22.60;44.90;;;;;;5127905;27;20088;-38
2021/04/02 02:31:38;;;;;;;13.50;2.90;;;22.60;45.00;;;;;;5119841;27;20043;-38
2021/04/02 02:34:07;;;;;;;9.40;2.90;;;22.60;44.90;;;;;;5133159;27;20087;-37
2021/04/02 02:36:34;;;;;;;9.38;2.60;;;22.60;44.90;;;;;;5133173;27;20113;-37
2021/04/02 02:39:05;;;;;;;9.60;2.72;;;22.60;44.90;;;;;;5132442;27;20047;-39
2021/04/02 02:41:32;;;;;;;9.50;2.78;;;22.60;44.90;;;;;;5132233;27;20111;-37
2021/04/02 02:43:58;;;;;;;10.63;3.08;;;22.60;44.90;;;;;;5118605;27;20425;-38
2021/04/02 02:46:26;;;;;;;14.82;3.90;;;22.60;44.90;;;;;;5128866;27;20043;-37
2021/04/02 02:48:59;;;;;;;11.90;3.85;;;22.60;44.90;;;;;;5115650;28;20091;-37
2021/04/02 02:51:31;;;;;;;10.38;3.10;;;22.60;44.90;;;;;;5114744;27;20115;-37
2021/04/02 02:54:06;;;;;;;13.05;2.95;;;22.60;44.90;;;;;;5131811;27;20078;-37
2021/04/02 02:56:35;;;;;;;6.40;2.75;;;22.60;44.90;;;;;;5132429;27;20043;-37
2021/04/02 02:59:04;;;;;;;8.27;3.22;;;22.60;44.90;;;;;;5132843;27;20086;-37
2021/04/02 03:01:34;;;;;;;10.88;3.50;;;22.60;44.90;;;;;;5131533;27;20043;-37
2021/04/02 03:04:02;;;;;;;8.73;2.97;;;22.60;44.90;;;;;;5131450;27;20039;-36
2021/04/02 03:06:35;;;;;;;8.73;2.95;;;22.60;44.90;;;;;;5125456;27;20051;-36
2021/04/02 03:09:03;;;;;;;10.40;2.92;;;22.60;44.90;;;;;;5132345;27;20476;-35
2021/04/02 03:11:31;;;;;;;10.98;3.50;;;22.60;44.90;;;;;;5131759;27;20380;-36
2021/04/02 03:14:00;;;;;;;10.68;3.03;;;22.60;45.00;;;;;;5114332;28;20074;-37
2021/04/02 03:16:27;;;;;;;8.25;2.58;;;22.60;45.00;;;;;;5115862;28;20456;-36
2021/04/02 03:18:57;;;;;;;8.73;2.50;;;22.60;45.00;;;;;;5131480;27;20471;-37
2021/04/02 03:21:24;;;;;;;11.18;2.50;;;22.60;45.00;;;;;;5115256;28;20054;-36
2021/04/02 03:23:52;;;;;;;6.35;2.42;;;22.60;44.90;;;;;;5131036;27;20115;-37
2021/04/02 03:26:20;;;;;;;9.45;2.90;;;22.60;44.90;;;;;;5125338;27;20415;-36
2021/04/02 03:28:48;;;;;;;7.65;2.95;;;22.60;44.90;;;;;;5123888;27;20059;-36
2021/04/02 03:31:16;;;;;;;10.10;2.90;;;22.60;44.90;;;;;;5116727;27;20127;-36
2021/04/02 03:33:53;;;;;;;7.15;2.47;;;22.60;45.00;;;;;;5121221;27;20123;-36
2021/04/02 03:36:24;;;;;;;6.90;2.47;;;22.60;44.90;;;;;;5133325;27;20075;-36
2021/04/02 03:38:51;;;;;;;8.65;3.00;;;22.60;44.90;;;;;;5120665;27;20039;-36
2021/04/02 03:41:29;;;;;;;10.18;2.83;;;22.60;44.90;;;;;;5119519;27;20074;-36
2021/04/02 03:43:58;;;;;;;10.60;2.53;;;22.60;45.00;;;;;;5119018;27;20074;-37
2021/04/02 03:46:27;;;;;;;12.10;3.00;;;22.60;45.00;;;;;;5134705;27;20096;-37
2021/04/02 03:48:58;;;;;;;8.57;3.05;;;22.60;45.00;;;;;;5115928;27;20069;-36
2021/04/02 03:51:27;;;;;;;7.15;2.75;;;22.50;44.90;;;;;;5121447;27;20505;-36
2021/04/02 03:54:00;;;;;;;10.60;2.90;;;22.60;45.00;;;;;;5121380;27;20112;-37
2021/04/02 03:56:34;;;;;;;13.52;3.20;;;22.60;45.00;;;;;;5133235;27;20552;-36
2021/04/02 03:59:03;;;;;;;10.90;3.10;;;22.60;45.00;;;;;;5124864;27;20092;-36
2021/04/02 04:01:33;;;;;;;8.45;3.13;;;22.50;44.90;;;;;;5130319;27;20051;-37
2021/04/02 04:04:00;;;;;;;9.35;2.58;;;22.50;44.90;;;;;;5133413;27;20039;-36
2021/04/02 04:06:30;;;;;;;6.07;2.28;;;22.60;45.00;;;;;;5136254;27;20080;-36
2021/04/02 04:09:01;;;;;;;9.55;2.55;;;22.60;45.00;;;;;;5118347;27;20107;-36
2021/04/02 04:11:31;;;;;;;9.68;2.72;;;22.50;44.90;;;;;;5136877;27;20054;-36
2021/04/02 04:14:01;;;;;;;11.65;2.70;;;22.60;45.00;;;;;;5114784;27;20047;-37
2021/04/02 04:16:28;;;;;;;10.40;3.03;;;22.60;45.00;;;;;;5114695;27;20094;-37
2021/04/02 04:18:58;;;;;;;7.97;2.40;;;22.50;44.90;;;;;;5114010;28;20109;-37
2021/04/02 04:21:34;;;;;;;6.43;2.50;;;22.60;45.00;;;;;;5112433;28;20048;-38
2021/04/02 04:24:04;;;;;;;6.13;2.60;;;22.50;44.90;;;;;;5116306;27;20116;-38
2021/04/02 04:26:32;;;;;;;7.95;3.05;;;22.50;44.90;;;;;;5114507;27;20051;-38
2021/04/02 04:29:00;;;;;;;9.40;2.85;;;22.50;44.90;;;;;;5114309;27;20044;-39
2021/04/02 04:31:27;;;;;;;6.15;2.15;;;22.50;44.90;;;;;;5107539;28;20048;-38
2021/04/02 04:33:56;;;;;;;8.63;3.10;;;22.50;44.90;;;;;;5116032;27;20074;-37
2021/04/02 04:36:23;;;;;;;11.00;3.03;;;22.50;44.90;;;;;;5113365;28;20499;-37
2021/04/02 04:38:52;;;;;;;8.05;2.42;;;22.50;44.90;;;;;;5113068;27;20071;-37
2021/04/02 04:41:21;;;;;;;13.55;3.13;;;22.50;44.90;;;;;;5114234;27;20089;-37
2021/04/02 04:43:49;;;;;;;9.90;2.63;;;22.50;44.90;;;;;;5114545;27;20086;-38
2021/04/02 04:46:17;;;;;;;8.68;2.88;;;22.50;44.90;;;;;;5114380;28;20047;-37
2021/04/02 04:48:46;;;;;;;5.35;2.00;;;22.50;44.90;;;;;;5113135;28;20044;-37
2021/04/02 04:51:17;;;;;;;8.57;2.80;;;22.50;44.90;;;;;;5112696;28;20394;-37
2021/04/02 04:53:45;;;;;;;8.48;2.83;;;22.50;44.90;;;;;;5113878;28;20051;-38
2021/04/02 04:56:13;;;;;;;8.55;2.55;;;22.50;44.90;;;;;;5114150;27;20064;-36
2021/04/02 04:58:42;;;;;;;4.60;2.33;;;22.50;44.90;;;;;;5114045;27;20047;-37
2021/04/02 05:01:11;;;;;;;8.43;2.60;;;22.50;44.90;;;;;;5112579;27;20043;-37
2021/04/02 05:03:40;;;;;;;5.18;2.75;;;22.50;44.90;;;;;;5113900;27;20093;-37
2021/04/02 05:06:13;;;;;;;7.13;2.63;;;22.50;44.90;;;;;;5111313;27;20058;-37
2021/04/02 05:08:40;;;;;;;10.15;2.92;;;22.50;44.90;;;;;;5113873;27;20071;-37
2021/04/02 05:11:13;;;;;;;9.40;2.35;;;22.50;44.90;;;;;;5111365;28;20044;-37
2021/04/02 05:13:41;;;;;;;5.27;1.73;;;22.50;44.90;;;;;;5125485;27;20580;-37
2021/04/02 05:16:10;;;;;;;9.10;2.75;;;22.50;44.90;;;;;;5134607;27;20043;-36
2021/04/02 05:18:37;;;;;;;8.27;2.92;;;22.50;44.90;;;;;;5134372;27;20077;-38
2021/04/02 05:21:04;;;;;;;5.18;2.50;;;22.60;45.00;;;;;;5134642;27;20253;-37
2021/04/02 05:23:31;;;;;;;7.00;2.72;;;22.50;44.90;;;;;;5117651;27;20123;-37
2021/04/02 05:25:58;;;;;;;4.97;2.17;;;22.50;44.90;;;;;;5132977;27;20441;-37
2021/04/02 05:28:24;;;;;;;6.85;2.67;;;22.50;44.90;;;;;;5117145;27;20092;-37
2021/04/02 05:30:52;;;;;;;10.10;2.85;;;22.50;44.90;;;;;;5130135;27;20075;-37
2021/04/02 05:33:19;;;;;;;5.93;2.55;;;22.50;44.90;;;;;;5115570;27;20079;-37
2021/04/02 05:35:47;;;;;;;4.55;2.47;;;22.50;44.90;;;;;;5125477;27;20123;-38
2021/04/02 05:38:13;;;;;;;7.22;2.85;;;22.50;44.90;;;;;;5120903;27;20047;-37
2021/04/02 05:41:02;;;;;;;7.68;2.85;;;22.50;44.90;;;;;;5132786;27;20126;-37
2021/04/02 05:43:34;;;;;;;7.15;2.58;;;22.50;44.90;;;;;;5133851;27;20044;-38
2021/04/02 05:46:02;;;;;;;8.60;2.67;;;22.50;44.90;;;;;;5114412;27;20123;-37
2021/04/02 05:48:32;;;;;;;6.70;2.20;;;22.50;44.90;;;;;;5114343;27;20376;-37
2021/04/02 05:51:00;;;;;;;9.75;2.45;;;22.50;44.90;;;;;;5133837;27;20044;-37
2021/04/02 05:53:29;;;;;;;7.22;2.40;;;22.50;44.90;;;;;;5133084;27;20100;-37
2021/04/02 05:56:01;;;;;;;6.22;2.10;;;22.50;45.20;;;;;;5132316;27;20059;-38
2021/04/02 05:58:29;;;;;;;13.27;3.35;;;22.50;44.90;;;;;;5118027;27;20047;-37
2021/04/02 06:00:57;;;;;;;6.32;2.30;;;22.60;45.00;;;;;;5130931;27;20070;-37
2021/04/02 06:03:25;;;;;;;7.78;3.03;;;22.50;45.00;;;;;;5116648;27;20054;-37
2021/04/02 06:05:51;;;;;;;6.93;2.33;;;22.50;45.00;;;;;;5110857;28;20447;-37
2021/04/02 06:08:18;;;;;;;6.93;2.30;;;22.50;45.00;;;;;;5118696;27;20564;-37
2021/04/02 06:10:45;;;;;;;7.97;2.50;;;22.50;45.00;;;;;;5123725;27;20060;-38
2021/04/02 06:13:12;;;;;;;5.60;2.22;;;22.60;45.00;;;;;;5132710;27;20104;-37
2021/04/02 06:15:38;;;;;;;7.88;2.72;;;22.50;44.90;;;;;;5131557;27;20431;-37
2021/04/02 06:18:10;;;;;;;6.05;2.70;;;22.50;44.90;;;;;;5116066;27;20405;-37
2021/04/02 06:20:56;;;;;;;6.80;2.45;;;22.50;44.90;;;;;;5098780;27;20123;-37
2021/04/02 06:23:26;;;;;;;7.90;2.85;;;22.60;45.10;;;;;;5116428;27;20048;-38
2021/04/02 06:25:56;;;;;;;7.13;2.72;;;22.50;45.00;;;;;;5131760;27;20050;-37
2021/04/02 06:28:24;;;;;;;7.72;2.70;;;22.50;45.00;;;;;;5133164;27;20460;-37
2021/04/02 06:31:03;;;;;;;6.72;2.20;;;22.50;45.00;;;;;;5116573;27;20463;-38
2021/04/02 06:33:36;;;;;;;5.72;2.20;;;22.50;44.90;;;;;;5117528;27;20104;-37
2021/04/02 06:36:17;;;;;;;6.18;2.50;;;22.50;44.90;;;;;;5131734;27;20047;-37
2021/04/02 06:38:47;;;;;;;6.25;2.25;;;22.50;45.00;;;;;;5130739;27;20076;-37
2021/04/02 06:41:15;;;;;;;5.93;2.50;;;22.50;45.00;;;;;;5119915;27;20116;-37
2021/04/02 06:43:50;;;;;;;4.60;2.15;;;22.60;45.10;;;;;;5099238;28;20096;-40
2021/04/02 06:46:26;;;;;;;6.75;2.22;;;22.50;45.00;;;;;;5109869;27;20043;-37
2021/04/02 06:49:08;;;;;;;6.63;2.65;;;22.60;45.10;;;;;;5122639;27;20043;-37
2021/04/02 06:51:41;;;;;;;9.93;2.47;;;22.50;45.00;;;;;;5118320;27;20043;-37
2021/04/02 06:54:23;;;;;;;8.48;2.00;;;22.50;45.00;;;;;;5116673;27;20135;-37
2021/04/02 06:57:07;;;;;;;3.60;1.80;;;22.50;44.90;;;;;;5118204;27;20089;-38
2021/04/02 06:59:35;;;;;;;7.25;2.50;;;22.50;45.00;;;;;;5118347;27;20070;-37
2021/04/02 07:02:04;;;;;;;7.15;2.30;;;22.50;45.00;;;;;;5123813;27;20495;-37
2021/04/02 07:04:32;;;;;;;7.35;2.15;;;22.50;45.00;;;;;;5133478;27;20074;-39
2021/04/02 07:07:03;;;;;;;8.95;2.47;;;22.60;45.10;;;;;;5133640;27;20037;-37
2021/04/02 07:09:33;;;;;;;5.28;2.55;;;22.50;45.00;;;;;;5134694;27;20055;-38
2021/04/02 07:12:01;;;;;;;4.60;2.10;;;22.50;45.00;;;;;;5138505;27;20043;-37
2021/04/02 07:14:31;;;;;;;7.53;2.75;;;22.50;45.00;;;;;;5136602;27;20104;-37
2021/04/02 07:16:58;;;;;;;6.88;2.50;;;22.50;45.00;;;;;;5137568;27;20548;-38
2021/04/02 07:19:28;;;;;;;5.07;2.13;;;22.50;45.00;;;;;;5136065;27;20058;-38
2021/04/02 07:21:55;;;;;;;7.10;2.30;;;22.50;45.00;;;;;;5135273;27;20055;-37
2021/04/02 07:24:22;;;;;;;5.93;2.25;;;22.50;45.00;;;;;;5135204;27;20043;-37
2021/04/02 07:26:50;;;;;;;8.25;2.50;;;22.50;45.00;;;;;;5134065;27;20122;-37
2021/04/02 07:29:19;;;;;;;3.92;1.90;;;22.50;45.00;;;;;;5130056;27;20414;-37
2021/04/02 07:31:46;;;;;;;7.80;2.20;;;22.50;45.00;;;;;;5125640;27;20088;-38
2021/04/02 07:34:16;;;;;;;4.72;2.05;;;22.50;45.00;;;;;;5135311;27;20054;-38
2021/04/02 07:36:47;;;;;;;8.68;2.28;;;22.50;45.00;;;;;;5134034;27;20445;-37
2021/04/02 07:39:19;;;;;;;4.68;1.90;;;22.50;45.00;;;;;;5136467;27;20047;-37
2021/04/02 07:41:53;;;;;;;8.30;2.47;;;22.50;45.00;;;;;;5136857;27;20043;-38
2021/04/02 07:44:20;;;;;;;5.07;2.08;;;22.50;45.00;;;;;;5118751;27;20085;-37
2021/04/02 07:46:59;;;;;;;8.13;2.33;;;22.50;45.00;;;;;;5134333;27;20089;-37
2021/04/02 07:49:30;;;;;;;5.05;2.20;;;22.50;45.00;;;;;;5134070;27;20039;-37
2021/04/02 07:51:56;;;;;;;5.13;2.25;;;22.50;45.00;;;;;;5136123;27;20047;-38
2021/04/02 07:54:34;;;;;;;5.88;1.95;;;22.50;45.00;;;;;;5135913;27;20559;-37
2021/04/02 07:57:13;;;;;;;5.65;2.03;;;22.50;45.00;;;;;;5136218;27;20119;-37
2021/04/02 07:59:40;;;;;;;5.82;2.38;;;22.50;45.00;;;;;;5134681;27;20101;-37
2021/04/02 08:02:12;;;;;;;6.45;2.10;;;22.50;45.00;;;;;;5135784;27;20060;-37
2021/04/02 08:04:54;;;;;;;4.53;2.00;;;22.50;45.00;;;;;;5135743;27;20043;-38
2021/04/02 08:07:40;;;;;;;5.75;2.25;;;22.60;45.10;;;;;;5132772;27;20051;-37
2021/04/02 08:10:09;;;;;;;4.97;2.03;;;22.50;45.00;;;;;;5120088;27;20043;-37
2021/04/02 08:12:36;;;;;;;4.43;2.38;;;22.50;45.00;;;;;;5133069;27;20076;-37
2021/04/02 08:15:10;;;;;;;4.97;2.10;;;22.50;45.00;;;;;;5134711;27;20126;-37
2021/04/02 08:17:38;;;;;;;6.13;2.70;;;22.60;45.10;;;;;;5135570;27;20551;-37
2021/04/02 08:20:10;;;;;;;5.57;2.83;;;22.60;45.10;;;;;;5133908;27;20049;-37
2021/04/02 08:22:37;;;;;;;4.22;2.13;;;22.60;45.10;;;;;;5116931;27;20046;-37
2021/04/02 08:25:13;;;;;;;6.05;2.30;;;22.60;45.10;;;;;;5133099;27;20451;-37
2021/04/02 08:27:41;;;;;;;6.15;2.20;;;22.60;45.10;;;;;;5134533;27;20448;-37
2021/04/02 08:30:12;;;;;;;5.88;2.33;;;22.60;45.10;;;;;;5125502;27;20066;-37
2021/04/02 08:32:43;;;;;;;4.82;2.20;;;22.60;45.10;;;;;;5133592;27;20043;-37
2021/04/02 08:35:12;;;;;;;6.45;2.20;;;22.60;45.10;;;;;;5132685;27;20051;-37
2021/04/02 08:37:56;;;;;;;3.95;1.88;;;22.60;45.10;;;;;;5118741;27;20051;-37
2021/04/02 08:40:22;;;;;;;4.95;2.10;;;22.60;45.10;;;;;;5132973;27;20080;-37
2021/04/02 08:42:50;;;;;;;6.90;1.98;;;22.60;45.00;;;;;;5133842;27;20047;-37
2021/04/02 08:45:19;;;;;;;5.10;1.95;;;22.60;45.10;;;;;;5135053;27;20043;-37
2021/04/02 08:47:48;;;;;;;5.45;2.00;;;22.60;45.00;;;;;;5134620;27;20043;-37
2021/04/02 08:50:15;;;;;;;5.50;1.95;;;22.60;45.10;;;;;;5126721;27;20591;-37
2021/04/02 08:52:42;;;;;;;5.60;2.10;;;22.60;45.00;;;;;;5124248;27;20043;-37
2021/04/02 08:55:09;;;;;;;3.95;1.58;;;22.60;45.00;;;;;;5131658;27;20070;-37
2021/04/02 08:57:37;;;;;;;6.03;2.13;;;22.60;45.10;;;;;;5120301;27;20047;-37
2021/04/02 09:00:09;;;;;;;4.60;1.95;;;22.60;45.00;;;;;;5116998;27;20077;-38
2021/04/02 09:02:37;;;;;;;6.90;2.13;;;22.60;45.00;;;;;;5115681;27;20048;-37
2021/04/02 09:05:06;;;;;;;3.97;2.00;;;22.60;45.00;;;;;;5116091;27;20043;-37
2021/04/02 09:07:38;;;;;;;3.95;2.00;;;22.60;45.00;;;;;;5134436;27;20088;-37
2021/04/02 09:10:14;;;;;;;5.28;2.17;;;22.60;45.00;;;;;;5117612;27;20044;-37
2021/04/02 09:12:49;;;;;;;7.28;2.40;;;22.60;45.00;;;;;;5118594;27;20095;-37
2021/04/02 09:15:29;;;;;;;7.30;2.22;;;22.60;45.00;;;;;;5119194;27;20047;-37
2021/04/02 09:18:14;;;;;;;7.40;2.30;;;22.60;45.00;;;;;;5101136;28;20464;-37
2021/04/02 09:20:41;;;;;;;4.53;1.88;;;22.60;45.00;;;;;;5121829;27;20108;-37
2021/04/02 09:23:09;;;;;;;6.68;2.17;;;22.60;45.00;;;;;;5130749;27;20051;-37
2021/04/02 09:25:43;;;;;;;4.65;1.80;;;22.60;45.00;;;;;;5132672;27;20047;-37
2021/04/02 09:28:10;;;;;;;;;;;22.60;45.00;;;;;;5109041;27;20118;-37
2021/04/02 09:30:37;;;;;;;4.60;2.03;;;22.60;45.00;;;;;;5118530;27;19919;-37
2021/04/02 09:33:05;;;;;;;4.57;2.00;;;22.60;45.00;;;;;;5129850;27;20084;-37
2021/04/02 09:35:33;;;;;;;4.32;2.00;;;22.60;45.00;;;;;;5117036;27;20096;-37
2021/04/02 09:38:03;;;;;;;5.90;2.30;;;22.60;45.00;;;;;;5119318;27;20043;-37
2021/04/02 09:40:30;;;;;;;4.07;1.92;;;22.60;45.00;;;;;;5117362;27;20039;-37
2021/04/02 09:42:58;;;;;;;4.95;2.00;;;22.60;44.90;;;;;;5097465;27;20047;-37
2021/04/02 09:45:28;;;;;;;3.10;1.75;;;22.60;44.90;;;;;;5114171;27;20100;-37
2021/04/02 09:47:55;;;;;;;6.07;2.10;;;22.60;44.90;;;;;;5132821;27;20050;-37
2021/04/02 09:50:21;;;;;;;5.07;1.95;;;22.70;45.00;;;;;;5132740;27;20047;-37
2021/04/02 09:52:48;;;;;;;5.85;2.60;;;22.70;45.00;;;;;;5133488;27;20074;-37
2021/04/02 09:55:16;;;;;;;3.80;1.85;;;22.70;45.00;;;;;;5132640;27;20066;-37
2021/04/02 09:57:47;;;;;;;6.03;2.20;;;22.70;45.00;;;;;;5131099;27;20126;-37
2021/04/02 10:00:14;;;;;;;3.78;2.00;;;22.70;45.00;;;;;;5132243;27;20046;-37
2021/04/02 10:02:42;;;;;;;3.95;1.90;;;22.70;45.00;;;;;;5133774;27;20440;-37
2021/04/02 10:05:09;;;;;;;5.47;2.05;;;22.70;45.00;;;;;;5133088;27;20042;-37
2021/04/02 10:07:36;;;;;;;4.85;2.10;;;22.70;44.90;;;;;;5132927;27;20091;-37
2021/04/02 10:10:07;;;;;;;4.97;2.22;;;22.70;44.90;;;;;;5133408;27;20083;-37
2021/04/02 10:12:33;;;;;;;4.80;1.90;;;22.70;44.90;;;;;;5131782;27;20047;-37
2021/04/02 10:15:03;;;;;;;5.45;2.15;;;22.70;44.90;;;;;;5131388;27;20043;-37
2021/04/02 10:17:30;;;;;;;5.53;2.03;;;22.70;44.90;;;;;;5131748;27;20043;-38
2021/04/02 10:19:56;;;;;;;5.72;2.15;;;22.70;44.90;;;;;;5130014;27;20043;-37
2021/04/02 10:22:24;;;;;;;2.75;1.75;;;22.70;44.80;;;;;;5132053;27;20056;-38
2021/04/02 10:24:51;;;;;;;4.38;2.00;;;22.70;44.80;;;;;;5130936;27;20043;-39
2021/04/02 10:27:17;;;;;;;6.15;2.30;;;22.70;44.80;;;;;;5133428;27;20038;-38
2021/04/02 10:29:44;;;;;;;5.82;2.08;;;22.70;44.80;;;;;;5126068;27;20042;-38
2021/04/02 10:32:11;;;;;;;4.18;2.20;;;22.80;44.90;;;;;;5132225;27;20104;-38
2021/04/02 10:34:38;;;;;;;4.07;1.95;;;22.70;44.80;;;;;;5111241;27;20038;-38
2021/04/02 10:37:06;;;;;;;2.70;1.83;;;22.80;44.90;;;;;;5114051;27;20079;-37
2021/04/02 10:39:33;;;;;;;4.22;2.08;;;22.80;44.90;;;;;;5130469;27;20466;-38
2021/04/02 10:42:01;;;;;;;5.65;2.38;;;22.80;44.80;;;;;;5131173;27;20122;-38
2021/04/02 10:44:27;;;;;;;5.40;2.20;;;22.80;44.80;;;;;;5130522;27;20414;-37
2021/04/02 10:46:54;;;;;;;5.45;2.00;;;22.80;44.80;;;;;;5132588;27;20555;-38
2021/04/02 10:49:21;;;;;;;3.65;1.80;;;22.80;44.80;;;;;;5131070;27;20047;-38
2021/04/02 10:51:48;;;;;;;4.65;2.00;;;22.80;44.80;;;;;;5131512;27;20103;-38
2021/04/02 10:54:14;;;;;;;3.30;1.83;;;22.80;44.80;;;;;;5129312;27;20051;-37
2021/04/02 10:56:41;;;;;;;5.32;2.35;;;22.80;44.80;;;;;;5130121;27;20063;-37
2021/04/02 10:59:08;;;;;;;3.45;2.05;;;22.80;44.80;;;;;;5113807;27;20583;-37
2021/04/02 11:01:34;;;;;;;6.30;2.03;;;22.80;44.80;;;;;;5130405;27;20047;-37
2021/04/02 11:04:01;;;;;;;3.50;1.92;;;22.80;44.80;;;;;;5132262;27;20111;-37
2021/04/02 11:06:28;;;;;;;3.80;1.80;;;22.80;44.80;;;;;;5122013;28;20055;-38
2021/04/02 11:08:54;;;;;;;4.35;1.70;;;22.80;44.80;;;;;;5130093;27;20043;-37
2021/04/02 11:11:21;;;;;;;6.75;2.22;;;22.80;44.80;;;;;;5130528;27;20516;-37
2021/04/02 11:13:48;;;;;;;2.70;1.80;;;22.80;44.80;;;;;;5130393;27;20079;-39
2021/04/02 11:16:15;;;;;;;3.45;2.00;;;22.80;44.80;;;;;;5129348;27;20055;-38
2021/04/02 11:18:42;;;;;;;4.00;1.92;;;22.80;44.70;;;;;;5130769;27;20058;-37
2021/04/02 11:21:08;;;;;;;2.25;1.60;;;22.80;44.70;;;;;;5131589;27;20043;-37
2021/04/02 11:23:35;;;;;;;5.40;2.00;;;22.80;44.70;;;;;;5131155;27;20055;-37
2021/04/02 11:26:03;;;;;;;3.42;1.80;;;22.80;44.70;;;;;;5129886;27;20051;-37
2021/04/02 11:28:30;;;;;;;3.95;2.17;;;22.80;44.70;;;;;;5133065;27;20047;-37
2021/04/02 11:30:56;;;;;;;4.63;1.65;;;22.80;44.70;;;;;;5113766;28;20040;-38
2021/04/02 11:33:23;;;;;;;5.13;2.40;;;22.80;44.70;;;;;;5130762;28;20043;-38
2021/04/02 11:35:49;;;;;;;3.80;2.15;;;22.80;44.70;;;;;;5130127;27;20047;-39
2021/04/02 11:38:16;;;;;;;3.70;1.77;;;22.80;44.70;;;;;;5132405;27;20100;-37
2021/04/02 11:40:44;;;;;;;4.38;2.00;;;22.80;44.70;;;;;;5130497;27;20047;-37
2021/04/02 11:43:10;;;;;;;3.38;1.77;;;22.80;44.70;;;;;;5129712;27;20047;-38
2021/04/02 11:45:37;;;;;;;5.40;2.03;;;22.80;44.70;;;;;;5130683;27;20043;-38
2021/04/02 11:48:04;;;;;;;4.90;2.10;;;22.80;44.70;;;;;;5130689;27;20092;-38
2021/04/02 11:50:31;;;;;;;3.33;1.95;;;22.80;44.70;;;;;;5112444;28;20523;-37
2021/04/02 11:52:57;;;;;;;3.78;2.03;;;22.80;44.70;;;;;;5096881;27;20046;-37
2021/04/02 11:55:24;;;;;;;4.13;1.60;;;22.90;44.80;;;;;;5115234;27;20134;-36
2021/04/02 11:57:51;;;;;;;4.03;1.80;;;22.80;44.70;;;;;;5136129;27;20104;-36
2021/04/02 12:00:18;;;;;;;4.47;2.20;;;22.90;44.80;;;;;;5119296;27;20491;-36
2021/04/02 12:02:45;;;;;;;2.72;1.80;;;22.80;44.70;;;;;;5133582;27;20099;-36
2021/04/02 12:05:13;;;;;;;4.43;2.00;;;22.80;44.70;;;;;;5134563;27;20092;-35
2021/04/02 12:07:40;;;;;;;4.43;1.90;;;22.80;44.70;;;;;;5126310;27;20078;-36
2021/04/02 12:10:07;;;;;;;2.92;1.83;;;22.80;44.70;;;;;;5125700;27;20470;-36
2021/04/02 12:12:35;;;;;;;2.85;1.75;;;22.80;44.70;;;;;;5106931;27;20048;-36
2021/04/02 12:15:05;;;;;;;5.70;2.05;;;22.90;44.80;;;;;;5098156;27;20052;-36
2021/04/02 12:17:33;;;;;;;5.10;1.92;;;22.90;44.80;;;;;;5099856;28;20549;-36
2021/04/02 12:19:59;;;;;;;4.65;2.08;;;22.90;44.80;;;;;;5098629;28;20051;-36
2021/04/02 12:22:26;;;;;;;4.82;1.70;;;22.90;44.80;;;;;;5114498;27;20071;-37
2021/04/02 12:24:53;;;;;;;4.00;2.10;;;22.90;44.80;;;;;;5113609;28;20138;-36
2021/04/02 12:27:19;;;;;;;4.15;1.88;;;22.90;44.80;;;;;;5098807;27;20457;-36
2021/04/02 12:29:46;;;;;;;4.22;2.00;;;22.90;44.80;;;;;;5088314;28;20043;-37
2021/04/02 12:32:13;;;;;;;3.65;1.83;;;22.90;44.80;;;;;;5111984;27;20445;-36
2021/04/02 12:34:39;;;;;;;4.15;1.85;;;22.90;44.80;;;;;;5114951;27;20097;-36
2021/04/02 12:37:06;;;;;;;4.50;1.75;;;22.90;44.80;;;;;;5105146;27;20056;-36
2021/04/02 12:39:32;;;;;;;3.80;1.92;;;22.90;44.80;;;;;;5102909;28;20035;-36
2021/04/02 12:41:59;;;;;;;4.15;1.80;;;22.90;44.80;;;;;;5112028;27;20058;-36
2021/04/02 12:44:26;;;;;;;3.25;2.20;;;22.90;44.70;;;;;;5096835;28;20039;-36
2021/04/02 12:46:53;;;;;;;2.40;1.70;;;22.90;44.70;;;;;;5099787;27;20047;-36
2021/04/02 12:49:19;;;;;;;3.42;1.95;;;22.90;45.10;;;;;;5113526;27;20505;-36
2021/04/02 12:51:46;;;;;;;4.22;1.70;;;22.90;44.80;;;;;;5114755;27;20059;-37
2021/04/02 12:54:13;;;;;;;3.55;1.80;;;22.80;44.70;;;;;;5113919;28;20047;-36
2021/04/02 12:56:40;;;;;;;3.05;1.50;;;22.80;44.70;;;;;;5113415;28;20059;-35